sensor_id;sensor_type;location;lat;lon;timestamp;temperature;humidity
48589;DHT22;34369;51.174;6.738;2023-02-03T00:02:18;8.40;70.00
48589;DHT22;34369;51.174;6.738;2023-02-03T00:04:50;8.40;69.90
48589;DHT22;34369;51.174;6.738;2023-02-03T00:07:22;8.40;69.90
48589;DHT22;34369;51.174;6.738;2023-02-03T00:09:54;8.40;69.90
48589;DHT22;34369;51.174;6.738;2023-02-03T00:12:27;8.40;69.80
48589;DHT22;34369;51.174;6.738;2023-02-03T00:14:58;8.40;69.80
48589;DHT22;34369;51.174;6.738;2023-02-03T00:17:32;8.40;69.80
48589;DHT22;34369;51.174;6.738;2023-02-03T00:20:05;8.40;69.80
48589;DHT22;34369;51.174;6.738;2023-02-03T00:22:37;8.40;69.80
48589;DHT22;34369;51.174;6.738;2023-02-03T00:25:09;8.40;69.70
48589;DHT22;34369;51.174;6.738;2023-02-03T00:27:42;8.40;69.60
48589;DHT22;34369;51.174;6.738;2023-02-03T00:30:13;8.40;69.60
48589;DHT22;34369;51.174;6.738;2023-02-03T00:32:47;8.40;69.60
48589;DHT22;34369;51.174;6.738;2023-02-03T00:35:19;8.40;69.60
48589;DHT22;34369;51.174;6.738;2023-02-03T00:37:51;8.40;69.60
48589;DHT22;34369;51.174;6.738;2023-02-03T00:40:24;8.40;69.70
48589;DHT22;34369;51.174;6.738;2023-02-03T00:42:59;8.40;69.70
48589;DHT22;34369;51.174;6.738;2023-02-03T00:45:31;8.40;69.60
48589;DHT22;34369;51.174;6.738;2023-02-03T00:48:05;8.40;69.50
48589;DHT22;34369;51.174;6.738;2023-02-03T00:50:37;8.40;69.50
48589;DHT22;34369;51.174;6.738;2023-02-03T00:53:09;8.40;69.50
48589;DHT22;34369;51.174;6.738;2023-02-03T00:55:41;8.40;69.60
48589;DHT22;34369;51.174;6.738;2023-02-03T00:58:13;8.40;69.60
48589;DHT22;34369;51.174;6.738;2023-02-03T01:00:45;8.40;69.60
48589;DHT22;34369;51.174;6.738;2023-02-03T01:03:18;8.40;69.60
48589;DHT22;34369;51.174;6.738;2023-02-03T01:05:50;8.50;69.60
48589;DHT22;34369;51.174;6.738;2023-02-03T01:08:23;8.40;69.50
48589;DHT22;34369;51.174;6.738;2023-02-03T01:10:55;8.40;69.50
48589;DHT22;34369;51.174;6.738;2023-02-03T01:13:27;8.50;69.50
48589;DHT22;34369;51.174;6.738;2023-02-03T01:15:58;8.50;69.50
48589;DHT22;34369;51.174;6.738;2023-02-03T01:18:32;8.50;69.40
48589;DHT22;34369;51.174;6.738;2023-02-03T01:21:05;8.50;69.40
48589;DHT22;34369;51.174;6.738;2023-02-03T01:23:38;8.50;69.40
48589;DHT22;34369;51.174;6.738;2023-02-03T01:26:13;8.50;69.40
48589;DHT22;34369;51.174;6.738;2023-02-03T01:28:50;8.50;69.40
48589;DHT22;34369;51.174;6.738;2023-02-03T01:31:24;8.50;69.40
48589;DHT22;34369;51.174;6.738;2023-02-03T01:33:58;8.50;69.30
48589;DHT22;34369;51.174;6.738;2023-02-03T01:36:32;8.50;69.30
48589;DHT22;34369;51.174;6.738;2023-02-03T01:39:05;8.50;69.30
48589;DHT22;34369;51.174;6.738;2023-02-03T01:41:38;8.50;69.30
48589;DHT22;34369;51.174;6.738;2023-02-03T01:44:40;8.50;69.20
48589;DHT22;34369;51.174;6.738;2023-02-03T01:47:24;8.50;69.20
48589;DHT22;34369;51.174;6.738;2023-02-03T01:50:05;8.50;69.20
48589;DHT22;34369;51.174;6.738;2023-02-03T01:52:41;8.50;69.20
48589;DHT22;34369;51.174;6.738;2023-02-03T01:55:19;8.50;69.20
48589;DHT22;34369;51.174;6.738;2023-02-03T01:57:57;8.50;69.20
48589;DHT22;34369;51.174;6.738;2023-02-03T02:00:31;8.50;69.10
48589;DHT22;34369;51.174;6.738;2023-02-03T02:03:04;8.50;69.20
48589;DHT22;34369;51.174;6.738;2023-02-03T02:05:40;8.50;69.20
48589;DHT22;34369;51.174;6.738;2023-02-03T02:08:18;8.50;69.20
48589;DHT22;34369;51.174;6.738;2023-02-03T02:10:52;8.60;69.20
48589;DHT22;34369;51.174;6.738;2023-02-03T02:13:25;8.50;69.10
48589;DHT22;34369;51.174;6.738;2023-02-03T02:16:04;8.60;69.10
48589;DHT22;34369;51.174;6.738;2023-02-03T02:18:59;8.60;69.10
48589;DHT22;34369;51.174;6.738;2023-02-03T02:21:57;8.60;69.00
48589;DHT22;34369;51.174;6.738;2023-02-03T02:25:13;8.60;69.00
48589;DHT22;34369;51.174;6.738;2023-02-03T02:28:21;8.60;69.00
48589;DHT22;34369;51.174;6.738;2023-02-03T02:31:43;8.50;68.90
48589;DHT22;34369;51.174;6.738;2023-02-03T02:34:26;8.60;68.90
48589;DHT22;34369;51.174;6.738;2023-02-03T02:37:13;8.50;68.90
48589;DHT22;34369;51.174;6.738;2023-02-03T02:39:56;8.60;68.90
48589;DHT22;34369;51.174;6.738;2023-02-03T02:42:33;8.60;68.90
48589;DHT22;34369;51.174;6.738;2023-02-03T02:45:13;8.60;68.90
48589;DHT22;34369;51.174;6.738;2023-02-03T02:47:49;8.50;68.90
48589;DHT22;34369;51.174;6.738;2023-02-03T02:50:23;8.50;68.90
48589;DHT22;34369;51.174;6.738;2023-02-03T02:52:58;8.60;68.90
48589;DHT22;34369;51.174;6.738;2023-02-03T02:55:32;8.50;68.90
48589;DHT22;34369;51.174;6.738;2023-02-03T02:58:07;8.60;68.80
48589;DHT22;34369;51.174;6.738;2023-02-03T03:00:42;8.50;68.80
48589;DHT22;34369;51.174;6.738;2023-02-03T03:03:18;8.50;68.80
48589;DHT22;34369;51.174;6.738;2023-02-03T03:05:53;8.50;68.70
48589;DHT22;34369;51.174;6.738;2023-02-03T03:08:29;8.50;68.70
48589;DHT22;34369;51.174;6.738;2023-02-03T03:11:03;8.60;68.70
48589;DHT22;34369;51.174;6.738;2023-02-03T03:13:43;8.50;68.70
48589;DHT22;34369;51.174;6.738;2023-02-03T03:16:23;8.50;68.70
48589;DHT22;34369;51.174;6.738;2023-02-03T03:19:00;8.60;68.70
48589;DHT22;34369;51.174;6.738;2023-02-03T03:21:39;8.50;68.70
48589;DHT22;34369;51.174;6.738;2023-02-03T03:24:17;8.60;68.70
48589;DHT22;34369;51.174;6.738;2023-02-03T03:26:53;8.50;68.70
48589;DHT22;34369;51.174;6.738;2023-02-03T03:29:30;8.50;68.70
48589;DHT22;34369;51.174;6.738;2023-02-03T03:32:05;8.50;68.70
48589;DHT22;34369;51.174;6.738;2023-02-03T03:34:38;8.50;68.70
48589;DHT22;34369;51.174;6.738;2023-02-03T03:37:13;8.50;68.70
48589;DHT22;34369;51.174;6.738;2023-02-03T03:39:53;8.50;68.70
48589;DHT22;34369;51.174;6.738;2023-02-03T03:42:28;8.50;68.70
48589;DHT22;34369;51.174;6.738;2023-02-03T03:45:04;8.50;68.70
48589;DHT22;34369;51.174;6.738;2023-02-03T03:47:43;8.50;68.70
48589;DHT22;34369;51.174;6.738;2023-02-03T03:50:24;8.50;68.50
48589;DHT22;34369;51.174;6.738;2023-02-03T03:52:59;8.50;68.50
48589;DHT22;34369;51.174;6.738;2023-02-03T03:55:34;8.50;68.50
48589;DHT22;34369;51.174;6.738;2023-02-03T03:58:09;8.50;68.60
48589;DHT22;34369;51.174;6.738;2023-02-03T04:00:42;8.50;68.60
48589;DHT22;34369;51.174;6.738;2023-02-03T04:03:17;8.50;68.60
48589;DHT22;34369;51.174;6.738;2023-02-03T04:05:53;8.50;68.60
48589;DHT22;34369;51.174;6.738;2023-02-03T04:08:25;8.50;68.60
48589;DHT22;34369;51.174;6.738;2023-02-03T04:10:57;8.50;68.60
48589;DHT22;34369;51.174;6.738;2023-02-03T04:13:29;8.50;68.50
48589;DHT22;34369;51.174;6.738;2023-02-03T04:16:01;8.50;68.60
48589;DHT22;34369;51.174;6.738;2023-02-03T04:18:33;8.50;68.60
48589;DHT22;34369;51.174;6.738;2023-02-03T04:21:06;8.50;68.60
48589;DHT22;34369;51.174;6.738;2023-02-03T04:23:38;8.50;68.60
48589;DHT22;34369;51.174;6.738;2023-02-03T04:26:10;8.50;68.70
48589;DHT22;34369;51.174;6.738;2023-02-03T04:28:42;8.50;68.60
48589;DHT22;34369;51.174;6.738;2023-02-03T04:31:14;8.50;68.60
48589;DHT22;34369;51.174;6.738;2023-02-03T04:33:46;8.50;68.70
48589;DHT22;34369;51.174;6.738;2023-02-03T04:36:20;8.50;68.60
48589;DHT22;34369;51.174;6.738;2023-02-03T04:38:52;8.50;68.60
48589;DHT22;34369;51.174;6.738;2023-02-03T04:41:24;8.50;68.60
48589;DHT22;34369;51.174;6.738;2023-02-03T04:43:56;8.50;68.60
48589;DHT22;34369;51.174;6.738;2023-02-03T04:46:28;8.50;68.60
48589;DHT22;34369;51.174;6.738;2023-02-03T04:48:59;8.50;68.60
48589;DHT22;34369;51.174;6.738;2023-02-03T04:51:33;8.50;68.60
48589;DHT22;34369;51.174;6.738;2023-02-03T04:54:05;8.50;68.50
48589;DHT22;34369;51.174;6.738;2023-02-03T04:56:37;8.50;68.50
48589;DHT22;34369;51.174;6.738;2023-02-03T04:59:09;8.50;68.50
48589;DHT22;34369;51.174;6.738;2023-02-03T05:01:41;8.50;68.50
48589;DHT22;34369;51.174;6.738;2023-02-03T05:04:13;8.50;68.50
48589;DHT22;34369;51.174;6.738;2023-02-03T05:06:47;8.50;68.50
48589;DHT22;34369;51.174;6.738;2023-02-03T05:09:19;8.50;68.40
48589;DHT22;34369;51.174;6.738;2023-02-03T05:11:51;8.50;68.40
48589;DHT22;34369;51.174;6.738;2023-02-03T05:14:23;8.50;68.50
48589;DHT22;34369;51.174;6.738;2023-02-03T05:16:55;8.50;68.40
48589;DHT22;34369;51.174;6.738;2023-02-03T05:19:26;8.50;68.40
48589;DHT22;34369;51.174;6.738;2023-02-03T05:22:00;8.50;68.40
48589;DHT22;34369;51.174;6.738;2023-02-03T05:24:32;8.50;68.40
48589;DHT22;34369;51.174;6.738;2023-02-03T05:27:04;8.50;68.50
48589;DHT22;34369;51.174;6.738;2023-02-03T05:29:36;8.50;68.40
48589;DHT22;34369;51.174;6.738;2023-02-03T05:32:08;8.50;68.40
48589;DHT22;34369;51.174;6.738;2023-02-03T05:34:39;8.50;68.40
48589;DHT22;34369;51.174;6.738;2023-02-03T05:37:13;8.50;68.30
48589;DHT22;34369;51.174;6.738;2023-02-03T05:39:45;8.50;68.30
48589;DHT22;34369;51.174;6.738;2023-02-03T05:42:17;8.50;68.30
48589;DHT22;34369;51.174;6.738;2023-02-03T05:44:48;8.50;68.30
48589;DHT22;34369;51.174;6.738;2023-02-03T05:47:20;8.50;68.30
48589;DHT22;34369;51.174;6.738;2023-02-03T05:49:52;8.50;68.20
48589;DHT22;34369;51.174;6.738;2023-02-03T05:52:25;8.50;68.20
48589;DHT22;34369;51.174;6.738;2023-02-03T05:54:57;8.50;68.20
48589;DHT22;34369;51.174;6.738;2023-02-03T05:57:29;8.50;68.10
48589;DHT22;34369;51.174;6.738;2023-02-03T06:00:01;8.50;68.10
48589;DHT22;34369;51.174;6.738;2023-02-03T06:02:33;8.50;68.00
48589;DHT22;34369;51.174;6.738;2023-02-03T06:05:06;8.50;68.00
48589;DHT22;34369;51.174;6.738;2023-02-03T06:07:40;8.50;68.00
48589;DHT22;34369;51.174;6.738;2023-02-03T06:10:12;8.60;68.00
48589;DHT22;34369;51.174;6.738;2023-02-03T06:12:44;8.60;67.90
48589;DHT22;34369;51.174;6.738;2023-02-03T06:15:17;8.50;67.70
48589;DHT22;34369;51.174;6.738;2023-02-03T06:17:49;8.50;67.70
48589;DHT22;34369;51.174;6.738;2023-02-03T06:20:21;8.50;67.60
48589;DHT22;34369;51.174;6.738;2023-02-03T06:22:55;8.50;67.60
48589;DHT22;34369;51.174;6.738;2023-02-03T06:25:27;8.50;67.60
48589;DHT22;34369;51.174;6.738;2023-02-03T06:28:01;8.60;67.60
48589;DHT22;34369;51.174;6.738;2023-02-03T06:30:33;8.50;67.60
48589;DHT22;34369;51.174;6.738;2023-02-03T06:33:05;8.60;67.60
48589;DHT22;34369;51.174;6.738;2023-02-03T06:35:37;8.60;67.50
48589;DHT22;34369;51.174;6.738;2023-02-03T06:38:10;8.60;67.40
48589;DHT22;34369;51.174;6.738;2023-02-03T06:40:45;8.60;67.30
48589;DHT22;34369;51.174;6.738;2023-02-03T06:43:17;8.60;67.30
48589;DHT22;34369;51.174;6.738;2023-02-03T06:45:49;8.60;67.20
48589;DHT22;34369;51.174;6.738;2023-02-03T06:48:21;8.60;67.30
48589;DHT22;34369;51.174;6.738;2023-02-03T06:50:53;8.60;67.20
48589;DHT22;34369;51.174;6.738;2023-02-03T06:53:26;8.60;67.20
48589;DHT22;34369;51.174;6.738;2023-02-03T06:55:59;8.60;67.10
48589;DHT22;34369;51.174;6.738;2023-02-03T06:58:31;8.60;67.10
48589;DHT22;34369;51.174;6.738;2023-02-03T07:01:03;8.60;67.10
48589;DHT22;34369;51.174;6.738;2023-02-03T07:03:36;8.60;67.10
48589;DHT22;34369;51.174;6.738;2023-02-03T07:06:08;8.60;67.10
48589;DHT22;34369;51.174;6.738;2023-02-03T07:08:41;8.60;67.00
48589;DHT22;34369;51.174;6.738;2023-02-03T07:11:14;8.60;67.00
48589;DHT22;34369;51.174;6.738;2023-02-03T07:13:46;8.60;67.00
48589;DHT22;34369;51.174;6.738;2023-02-03T07:16:18;8.60;67.00
48589;DHT22;34369;51.174;6.738;2023-02-03T07:18:50;8.60;66.90
48589;DHT22;34369;51.174;6.738;2023-02-03T07:21:22;8.60;67.00
48589;DHT22;34369;51.174;6.738;2023-02-03T07:23:56;8.60;67.00
48589;DHT22;34369;51.174;6.738;2023-02-03T07:26:28;8.60;67.00
48589;DHT22;34369;51.174;6.738;2023-02-03T07:29:01;8.60;67.10
48589;DHT22;34369;51.174;6.738;2023-02-03T07:31:33;8.60;67.00
48589;DHT22;34369;51.174;6.738;2023-02-03T07:34:06;8.60;67.00
48589;DHT22;34369;51.174;6.738;2023-02-03T07:36:38;8.60;67.00
48589;DHT22;34369;51.174;6.738;2023-02-03T07:39:12;8.60;66.90
48589;DHT22;34369;51.174;6.738;2023-02-03T07:41:44;8.60;66.90
48589;DHT22;34369;51.174;6.738;2023-02-03T07:44:16;8.60;67.00
48589;DHT22;34369;51.174;6.738;2023-02-03T07:46:49;8.60;66.90
48589;DHT22;34369;51.174;6.738;2023-02-03T07:49:21;8.60;66.90
48589;DHT22;34369;51.174;6.738;2023-02-03T07:51:54;8.70;66.90
48589;DHT22;34369;51.174;6.738;2023-02-03T07:54:31;8.70;66.80
48589;DHT22;34369;51.174;6.738;2023-02-03T07:57:03;8.70;66.80
48589;DHT22;34369;51.174;6.738;2023-02-03T07:59:36;8.80;66.80
48589;DHT22;34369;51.174;6.738;2023-02-03T08:02:09;8.80;66.80
48589;DHT22;34369;51.174;6.738;2023-02-03T08:04:42;8.80;66.70
48589;DHT22;34369;51.174;6.738;2023-02-03T08:07:14;8.80;66.70
48589;DHT22;34369;51.174;6.738;2023-02-03T08:09:48;8.80;66.60
48589;DHT22;34369;51.174;6.738;2023-02-03T08:12:20;8.80;66.50
48589;DHT22;34369;51.174;6.738;2023-02-03T08:14:52;8.80;66.50
48589;DHT22;34369;51.174;6.738;2023-02-03T08:17:26;8.80;66.60
48589;DHT22;34369;51.174;6.738;2023-02-03T08:19:59;8.80;66.50
48589;DHT22;34369;51.174;6.738;2023-02-03T08:22:32;8.90;66.40
48589;DHT22;34369;51.174;6.738;2023-02-03T08:25:07;8.90;66.40
48589;DHT22;34369;51.174;6.738;2023-02-03T08:27:40;8.80;66.40
48589;DHT22;34369;51.174;6.738;2023-02-03T08:30:13;8.90;66.40
48589;DHT22;34369;51.174;6.738;2023-02-03T08:32:45;8.90;66.50
48589;DHT22;34369;51.174;6.738;2023-02-03T08:35:18;8.90;66.50
48589;DHT22;34369;51.174;6.738;2023-02-03T08:37:51;8.90;66.50
48589;DHT22;34369;51.174;6.738;2023-02-03T08:40:25;8.90;66.50
48589;DHT22;34369;51.174;6.738;2023-02-03T08:42:57;8.90;66.50
48589;DHT22;34369;51.174;6.738;2023-02-03T08:45:29;8.90;66.30
48589;DHT22;34369;51.174;6.738;2023-02-03T08:48:02;8.90;66.30
48589;DHT22;34369;51.174;6.738;2023-02-03T08:50:36;8.90;66.30
48589;DHT22;34369;51.174;6.738;2023-02-03T08:53:08;8.90;66.30
48589;DHT22;34369;51.174;6.738;2023-02-03T08:55:42;8.90;66.30
48589;DHT22;34369;51.174;6.738;2023-02-03T08:58:15;9.00;66.30
48589;DHT22;34369;51.174;6.738;2023-02-03T09:00:47;9.00;66.20
48589;DHT22;34369;51.174;6.738;2023-02-03T09:03:22;9.00;66.20
48589;DHT22;34369;51.174;6.738;2023-02-03T09:05:57;9.00;66.20
48589;DHT22;34369;51.174;6.738;2023-02-03T09:08:30;9.00;66.20
48589;DHT22;34369;51.174;6.738;2023-02-03T09:11:08;9.00;66.20
48589;DHT22;34369;51.174;6.738;2023-02-03T09:13:41;9.00;66.20
48589;DHT22;34369;51.174;6.738;2023-02-03T09:16:17;9.00;66.20
48589;DHT22;34369;51.174;6.738;2023-02-03T09:18:51;9.00;66.20
48589;DHT22;34369;51.174;6.738;2023-02-03T09:21:23;9.00;66.40
48589;DHT22;34369;51.174;6.738;2023-02-03T09:23:58;9.00;66.40
48589;DHT22;34369;51.174;6.738;2023-02-03T09:26:33;9.00;66.50
48589;DHT22;34369;51.174;6.738;2023-02-03T09:29:05;9.00;66.50
48589;DHT22;34369;51.174;6.738;2023-02-03T09:31:40;9.00;66.60
48589;DHT22;34369;51.174;6.738;2023-02-03T09:34:13;9.00;66.70
48589;DHT22;34369;51.174;6.738;2023-02-03T09:36:46;9.00;66.80
48589;DHT22;34369;51.174;6.738;2023-02-03T09:39:18;9.00;66.90
48589;DHT22;34369;51.174;6.738;2023-02-03T09:45:16;9.00;67.30
48589;DHT22;34369;51.174;6.738;2023-02-03T09:47:53;9.00;67.30
48589;DHT22;34369;51.174;6.738;2023-02-03T09:50:32;9.00;67.20
48589;DHT22;34369;51.174;6.738;2023-02-03T09:53:10;9.00;67.40
48589;DHT22;34369;51.174;6.738;2023-02-03T09:55:52;9.00;67.50
48589;DHT22;34369;51.174;6.738;2023-02-03T09:58:28;9.00;67.50
48589;DHT22;34369;51.174;6.738;2023-02-03T10:01:08;8.90;67.70
48589;DHT22;34369;51.174;6.738;2023-02-03T10:03:46;8.90;67.80
48589;DHT22;34369;51.174;6.738;2023-02-03T10:06:30;8.90;67.80
48589;DHT22;34369;51.174;6.738;2023-02-03T10:09:18;8.90;68.00
48589;DHT22;34369;51.174;6.738;2023-02-03T10:12:18;8.90;68.10
48589;DHT22;34369;51.174;6.738;2023-02-03T10:15:16;8.90;68.30
48589;DHT22;34369;51.174;6.738;2023-02-03T10:18:07;8.90;68.20
48589;DHT22;34369;51.174;6.738;2023-02-03T10:20:43;8.90;68.10
48589;DHT22;34369;51.174;6.738;2023-02-03T10:23:21;8.90;68.20
48589;DHT22;34369;51.174;6.738;2023-02-03T10:25:58;8.90;68.30
48589;DHT22;34369;51.174;6.738;2023-02-03T10:28:37;8.90;68.40
48589;DHT22;34369;51.174;6.738;2023-02-03T10:31:17;8.90;68.50
48589;DHT22;34369;51.174;6.738;2023-02-03T10:33:57;8.90;68.60
48589;DHT22;34369;51.174;6.738;2023-02-03T10:36:40;8.90;68.70
48589;DHT22;34369;51.174;6.738;2023-02-03T10:39:26;8.90;68.90
48589;DHT22;34369;51.174;6.738;2023-02-03T10:42:04;9.00;68.90
48589;DHT22;34369;51.174;6.738;2023-02-03T10:44:41;9.00;68.90
48589;DHT22;34369;51.174;6.738;2023-02-03T10:47:35;9.00;68.90
48589;DHT22;34369;51.174;6.738;2023-02-03T10:50:15;9.00;69.20
48589;DHT22;34369;51.174;6.738;2023-02-03T10:52:49;9.00;69.10
48589;DHT22;34369;51.174;6.738;2023-02-03T10:55:29;9.00;69.10
48589;DHT22;34369;51.174;6.738;2023-02-03T10:58:12;9.00;69.30
48589;DHT22;34369;51.174;6.738;2023-02-03T11:00:52;8.90;69.30
48589;DHT22;34369;51.174;6.738;2023-02-03T11:03:28;9.00;69.30
48589;DHT22;34369;51.174;6.738;2023-02-03T11:06:06;8.90;69.30
48589;DHT22;34369;51.174;6.738;2023-02-03T11:08:42;9.00;69.40
48589;DHT22;34369;51.174;6.738;2023-02-03T11:11:20;9.00;69.30
48589;DHT22;34369;51.174;6.738;2023-02-03T11:14:02;9.00;69.50
48589;DHT22;34369;51.174;6.738;2023-02-03T11:16:43;9.00;69.40
48589;DHT22;34369;51.174;6.738;2023-02-03T11:19:20;9.00;69.40
48589;DHT22;34369;51.174;6.738;2023-02-03T11:21:54;9.00;69.50
48589;DHT22;34369;51.174;6.738;2023-02-03T11:24:30;9.00;69.40
48589;DHT22;34369;51.174;6.738;2023-02-03T11:27:06;9.00;69.50
48589;DHT22;34369;51.174;6.738;2023-02-03T11:29:44;9.00;69.40
48589;DHT22;34369;51.174;6.738;2023-02-03T11:32:19;9.10;69.40
48589;DHT22;34369;51.174;6.738;2023-02-03T11:34:56;9.10;69.40
48589;DHT22;34369;51.174;6.738;2023-02-03T11:37:32;9.10;69.40
48589;DHT22;34369;51.174;6.738;2023-02-03T11:40:25;9.20;69.20
48589;DHT22;34369;51.174;6.738;2023-02-03T11:43:00;9.20;69.30
48589;DHT22;34369;51.174;6.738;2023-02-03T11:45:37;9.20;69.10
48589;DHT22;34369;51.174;6.738;2023-02-03T11:48:21;9.20;69.10
48589;DHT22;34369;51.174;6.738;2023-02-03T11:51:03;9.20;69.00
48589;DHT22;34369;51.174;6.738;2023-02-03T11:53:58;9.20;69.00
48589;DHT22;34369;51.174;6.738;2023-02-03T11:56:49;9.20;69.00
48589;DHT22;34369;51.174;6.738;2023-02-03T11:59:38;9.20;68.90
48589;DHT22;34369;51.174;6.738;2023-02-03T12:02:40;9.20;68.80
48589;DHT22;34369;51.174;6.738;2023-02-03T12:05:57;9.20;68.80
48589;DHT22;34369;51.174;6.738;2023-02-03T12:09:11;9.20;68.80
48589;DHT22;34369;51.174;6.738;2023-02-03T12:12:19;9.20;68.70
48589;DHT22;34369;51.174;6.738;2023-02-03T12:15:12;9.30;68.60
48589;DHT22;34369;51.174;6.738;2023-02-03T12:18:19;9.30;68.60
48589;DHT22;34369;51.174;6.738;2023-02-03T12:21:10;9.30;68.60
48589;DHT22;34369;51.174;6.738;2023-02-03T12:23:57;9.40;68.60
48589;DHT22;34369;51.174;6.738;2023-02-03T12:26:40;9.40;68.50
48589;DHT22;34369;51.174;6.738;2023-02-03T12:29:20;9.40;68.50
48589;DHT22;34369;51.174;6.738;2023-02-03T12:32:02;9.40;68.50
48589;DHT22;34369;51.174;6.738;2023-02-03T12:34:41;9.40;68.50
48589;DHT22;34369;51.174;6.738;2023-02-03T12:37:25;9.40;68.40
48589;DHT22;34369;51.174;6.738;2023-02-03T12:40:02;9.40;68.40
48589;DHT22;34369;51.174;6.738;2023-02-03T12:42:39;9.40;68.40
48589;DHT22;34369;51.174;6.738;2023-02-03T12:45:18;9.40;68.40
48589;DHT22;34369;51.174;6.738;2023-02-03T12:47:55;9.40;68.30
48589;DHT22;34369;51.174;6.738;2023-02-03T12:50:35;9.40;68.30
48589;DHT22;34369;51.174;6.738;2023-02-03T12:53:16;9.40;68.30
48589;DHT22;34369;51.174;6.738;2023-02-03T12:55:56;9.40;68.20
48589;DHT22;34369;51.174;6.738;2023-02-03T12:58:35;9.50;68.20
48589;DHT22;34369;51.174;6.738;2023-02-03T13:01:14;9.50;68.20
48589;DHT22;34369;51.174;6.738;2023-02-03T13:03:54;9.50;68.20
48589;DHT22;34369;51.174;6.738;2023-02-03T13:06:35;9.60;68.20
48589;DHT22;34369;51.174;6.738;2023-02-03T13:09:24;9.60;68.20
48589;DHT22;34369;51.174;6.738;2023-02-03T13:12:04;9.60;68.20
48589;DHT22;34369;51.174;6.738;2023-02-03T13:14:41;9.60;68.20
48589;DHT22;34369;51.174;6.738;2023-02-03T13:17:19;9.60;68.20
48589;DHT22;34369;51.174;6.738;2023-02-03T13:19:58;9.70;68.10
48589;DHT22;34369;51.174;6.738;2023-02-03T13:22:33;9.70;68.10
48589;DHT22;34369;51.174;6.738;2023-02-03T13:25:15;9.70;68.00
48589;DHT22;34369;51.174;6.738;2023-02-03T13:27:54;9.70;68.00
48589;DHT22;34369;51.174;6.738;2023-02-03T13:31:09;9.80;68.00
48589;DHT22;34369;51.174;6.738;2023-02-03T13:34:06;9.80;67.80
48589;DHT22;34369;51.174;6.738;2023-02-03T13:37:11;9.80;67.70
48589;DHT22;34369;51.174;6.738;2023-02-03T13:39:59;9.90;67.80
48589;DHT22;34369;51.174;6.738;2023-02-03T13:42:45;10.00;67.80
48589;DHT22;34369;51.174;6.738;2023-02-03T13:45:25;10.00;67.80
48589;DHT22;34369;51.174;6.738;2023-02-03T13:48:06;10.00;67.60
48589;DHT22;34369;51.174;6.738;2023-02-03T13:50:40;10.00;67.60
48589;DHT22;34369;51.174;6.738;2023-02-03T13:53:17;10.00;67.70
48589;DHT22;34369;51.174;6.738;2023-02-03T13:55:55;10.00;67.50
48589;DHT22;34369;51.174;6.738;2023-02-03T13:58:30;10.00;67.50
48589;DHT22;34369;51.174;6.738;2023-02-03T14:01:27;10.00;67.60
48589;DHT22;34369;51.174;6.738;2023-02-03T14:04:04;10.10;67.30
48589;DHT22;34369;51.174;6.738;2023-02-03T14:06:56;10.20;67.40
48589;DHT22;34369;51.174;6.738;2023-02-03T14:09:39;10.20;67.30
48589;DHT22;34369;51.174;6.738;2023-02-03T14:12:37;10.20;67.30
48589;DHT22;34369;51.174;6.738;2023-02-03T14:15:29;10.20;67.20
48589;DHT22;34369;51.174;6.738;2023-02-03T14:21:14;10.30;67.10
48589;DHT22;34369;51.174;6.738;2023-02-03T14:23:58;10.30;66.90
48589;DHT22;34369;51.174;6.738;2023-02-03T14:26:38;10.30;66.80
48589;DHT22;34369;51.174;6.738;2023-02-03T14:29:26;10.30;66.90
48589;DHT22;34369;51.174;6.738;2023-02-03T14:32:00;10.30;66.70
48589;DHT22;34369;51.174;6.738;2023-02-03T14:34:35;10.40;66.70
48589;DHT22;34369;51.174;6.738;2023-02-03T14:37:18;10.40;66.70
48589;DHT22;34369;51.174;6.738;2023-02-03T14:40:14;10.40;66.70
48589;DHT22;34369;51.174;6.738;2023-02-03T14:43:24;10.40;66.60
48589;DHT22;34369;51.174;6.738;2023-02-03T14:49:29;10.40;66.60
48589;DHT22;34369;51.174;6.738;2023-02-03T14:52:20;10.40;66.50
48589;DHT22;34369;51.174;6.738;2023-02-03T14:55:13;10.40;66.40
48589;DHT22;34369;51.174;6.738;2023-02-03T14:57:59;10.40;66.20
48589;DHT22;34369;51.174;6.738;2023-02-03T15:00:33;10.40;66.20
48589;DHT22;34369;51.174;6.738;2023-02-03T15:03:35;10.30;66.20
48589;DHT22;34369;51.174;6.738;2023-02-03T15:06:37;10.30;66.20
48589;DHT22;34369;51.174;6.738;2023-02-03T15:09:26;10.30;66.30
48589;DHT22;34369;51.174;6.738;2023-02-03T15:12:01;10.30;66.40
48589;DHT22;34369;51.174;6.738;2023-02-03T15:14:37;10.30;66.40
48589;DHT22;34369;51.174;6.738;2023-02-03T15:17:12;10.30;66.50
48589;DHT22;34369;51.174;6.738;2023-02-03T15:19:51;10.20;66.50
48589;DHT22;34369;51.174;6.738;2023-02-03T15:22:25;10.30;66.60
48589;DHT22;34369;51.174;6.738;2023-02-03T15:25:00;10.20;66.60
48589;DHT22;34369;51.174;6.738;2023-02-03T15:27:33;10.20;66.70
48589;DHT22;34369;51.174;6.738;2023-02-03T15:30:19;10.20;66.90
48589;DHT22;34369;51.174;6.738;2023-02-03T15:32:59;10.20;67.30
48589;DHT22;34369;51.174;6.738;2023-02-03T15:35:38;10.20;66.70
48589;DHT22;34369;51.174;6.738;2023-02-03T15:38:14;10.10;66.60
48589;DHT22;34369;51.174;6.738;2023-02-03T15:40:52;10.00;66.30
48589;DHT22;34369;51.174;6.738;2023-02-03T15:43:31;10.00;66.30
48589;DHT22;34369;51.174;6.738;2023-02-03T15:46:05;9.90;66.40
48589;DHT22;34369;51.174;6.738;2023-02-03T15:48:44;9.90;66.60
48589;DHT22;34369;51.174;6.738;2023-02-03T15:51:29;9.80;66.60
48589;DHT22;34369;51.174;6.738;2023-02-03T15:54:05;9.70;66.60
48589;DHT22;34369;51.174;6.738;2023-02-03T15:56:44;9.70;66.50
48589;DHT22;34369;51.174;6.738;2023-02-03T15:59:28;9.60;66.70
48589;DHT22;34369;51.174;6.738;2023-02-03T16:02:13;9.50;66.90
48589;DHT22;34369;51.174;6.738;2023-02-03T16:04:48;9.40;67.00
48589;DHT22;34369;51.174;6.738;2023-02-03T16:07:28;9.40;67.00
48589;DHT22;34369;51.174;6.738;2023-02-03T16:10:01;9.40;67.10
48589;DHT22;34369;51.174;6.738;2023-02-03T16:12:33;9.30;67.10
48589;DHT22;34369;51.174;6.738;2023-02-03T16:15:20;9.30;67.20
48589;DHT22;34369;51.174;6.738;2023-02-03T16:17:54;9.20;67.30
48589;DHT22;34369;51.174;6.738;2023-02-03T16:20:28;9.20;67.20
48589;DHT22;34369;51.174;6.738;2023-02-03T16:23:19;9.20;67.20
48589;DHT22;34369;51.174;6.738;2023-02-03T16:26:17;9.20;67.30
48589;DHT22;34369;51.174;6.738;2023-02-03T16:28:56;9.20;67.50
48589;DHT22;34369;51.174;6.738;2023-02-03T16:32:17;9.20;67.50
48589;DHT22;34369;51.174;6.738;2023-02-03T16:35:10;9.10;67.60
48589;DHT22;34369;51.174;6.738;2023-02-03T16:38:14;9.10;67.50
48589;DHT22;34369;51.174;6.738;2023-02-03T16:41:14;9.00;67.80
48589;DHT22;34369;51.174;6.738;2023-02-03T16:44:07;9.00;67.90
48589;DHT22;34369;51.174;6.738;2023-02-03T16:47:01;9.00;67.80
48589;DHT22;34369;51.174;6.738;2023-02-03T16:49:54;9.00;67.90
48589;DHT22;34369;51.174;6.738;2023-02-03T16:52:44;9.00;68.00
48589;DHT22;34369;51.174;6.738;2023-02-03T16:55:18;9.00;68.10
48589;DHT22;34369;51.174;6.738;2023-02-03T16:57:50;9.00;68.20
48589;DHT22;34369;51.174;6.738;2023-02-03T17:00:26;9.00;68.20
48589;DHT22;34369;51.174;6.738;2023-02-03T17:03:02;9.00;68.30
48589;DHT22;34369;51.174;6.738;2023-02-03T17:05:36;9.00;68.30